This is the latest recevied weather packets stored in our database for station/object DO2HN-12. If no packets are shown the sender has not sent any weather packets the latest 1 day(s).
| Time | Temp. | Humidity | Pressure | Rain* | Wind** | Luminosity | Snow |
|---|---|---|---|---|---|---|---|
| 1777769403 | 11.67° C | 53% | 1019 hPa | - | - | - | - |
| 1777768503 | 12.22° C | 53% | 1019.1 hPa | - | - | - | - |
| 1777767602 | 11.11° C | 54% | 1019.1 hPa | - | - | - | - |
| 1777766701 | 11.67° C | 52% | 1019.3 hPa | - | - | - | - |
| 1777765800 | 11.67° C | 51% | 1019.5 hPa | - | - | - | - |
| 1777764899 | 12.22° C | 52% | 1019.5 hPa | - | - | - | - |
| 1777763999 | 12.22° C | 51% | 1019.6 hPa | - | - | - | - |
| 1777763098 | 12.22° C | 52% | 1019.7 hPa | - | - | - | - |
| 1777762197 | 12.22° C | 52% | 1019.8 hPa | - | - | - | - |
| 1777761296 | 12.78° C | 52% | 1019.9 hPa | - | - | - | - |
| 1777760395 | 13.33° C | 51% | 1019.9 hPa | - | - | - | - |
| 1777759494 | 13.33° C | 50% | 1019.9 hPa | - | - | - | - |
| 1777758594 | 13.33° C | 50% | 1019.9 hPa | - | - | - | - |
| 1777757693 | 13.89° C | 48% | 1020.1 hPa | - | - | - | - |
| 1777755891 | 14.44° C | 49% | 1020.1 hPa | - | - | - | - |
| 1777754990 | 14.44° C | 48% | 1020.2 hPa | - | - | - | - |
| 1777754090 | 15.56° C | 46% | 1020.2 hPa | - | - | - | - |
| 1777753189 | 15.56° C | 45% | 1020.2 hPa | - | - | - | - |
| 1777752288 | 16.11° C | 43% | 1020.2 hPa | - | - | - | - |
| 1777751387 | 16.67° C | 41% | 1020.2 hPa | - | - | - | - |
| 1777750486 | 17.78° C | 40% | 1020.3 hPa | - | - | - | - |
| 1777749585 | 18.33° C | 36% | 1020.2 hPa | - | - | - | - |
| 1777748684 | 18.89° C | 36% | 1020.2 hPa | - | - | - | - |
| 1777747783 | 20° C | 34% | 1020.1 hPa | - | - | - | - |
| 1777746882 | 21.11° C | 29% | 1020.1 hPa | - | - | - | - |
* Rain since midnight (hover to see other rain measurements)
** Current wind speed in m/s (hover to see current wind gust speed)